Time;durP1;ratioP1;P1;durP2;ratioP2;P2;SDS_P1;SDS_P2;PMS_P1;PMS_P2;Temp;Humidity;BMP_temperature;BMP_pressure;BME280_temperature;BME280_humidity;BME280_pressure;Samples;Min_cycle;Max_cycle;Signal;HPM_P1;HPM_P2
2022/06/01 00:00:42;;;;;;;;;;;;;;;23.03;51.66;99479.19;2051717;28;20763;-58
2022/06/01 00:01:45;;;;;;;;;;;;;;;23.04;51.63;99474.53;2043572;28;19975;-57
2022/06/01 00:02:45;;;;;;;;;;;;;;;23.03;51.56;99476.44;2044081;28;20129;-57
2022/06/01 00:03:46;;;;;;;;;;;;;;;23.03;51.43;99473.69;2043823;28;19924;-57
2022/06/01 00:04:46;;;;;;;;;;;;;;;23.04;51.67;99469.88;2043087;28;19925;-58
2022/06/01 00:05:46;;;;;;;;;;;;;;;23.04;51.46;99474.53;2044825;28;19918;-57
2022/06/01 00:06:47;;;;;;;;;;;;;;;23.04;51.49;99469.88;2044166;28;19925;-58
2022/06/01 00:07:47;;;;;;;;;;;;;;;23.04;51.51;99471.78;2045096;28;19918;-57
2022/06/01 00:08:47;;;;;;;;;;;;;;;23.04;51.64;99472.63;2043770;28;19917;-57
2022/06/01 00:09:48;;;;;;;;;;;;;;;23.04;51.58;99469.88;2045579;28;19970;-58
2022/06/01 00:10:49;;;;;;;;;;;;;;;23.04;51.48;99471.78;2043932;28;19916;-58
2022/06/01 00:11:49;;;;;;;;;;;;;;;23.05;51.49;99470.72;2045314;28;19965;-57
2022/06/01 00:12:49;;;;;;;;;;;;;;;23.03;51.57;99468.19;2044737;28;19934;-58
2022/06/01 00:13:50;;;;;;;;;;;;;;;23.04;51.60;99472.63;2048569;28;19988;-57
2022/06/01 00:14:51;;;;;;;;;;;;;;;23.04;51.42;99467.13;2052832;28;19922;-58
2022/06/01 00:15:51;;;;;;;;;;;;;;;23.04;51.57;99464.38;2043595;28;20050;-57
2022/06/01 00:16:55;;;;;;;;;;;;;;;23.05;51.57;99462.50;2045005;28;19921;-58
2022/06/01 00:17:57;;;;;;;;;;;;;;;23.03;51.53;99468.19;2043948;28;20006;-57
2022/06/01 00:18:57;;;;;;;;;;;;;;;23.05;51.59;99465.22;2045523;28;20146;-58
2022/06/01 00:19:57;;;;;;;;;;;;;;;23.05;51.55;99474.34;2043522;28;20315;-57
2022/06/01 00:20:58;;;;;;;;;;;;;;;23.04;51.59;99469.03;2045120;28;19918;-57
2022/06/01 00:22:17;;;;;;;;;;;;;;;23.04;51.72;99472.63;2050328;28;19936;-57
2022/06/01 00:23:17;;;;;;;;;;;;;;;23.03;51.66;99470.94;2050378;28;20016;-57
2022/06/01 00:24:18;;;;;;;;;;;;;;;23.03;51.74;99468.19;2043628;28;20408;-58
2022/06/01 00:25:18;;;;;;;;;;;;;;;23.02;51.70;99468.38;2043264;28;20341;-57
2022/06/01 00:26:18;;;;;;;;;;;;;;;23.02;51.76;99471.13;2045465;28;19961;-58
2022/06/01 00:27:19;;;;;;;;;;;;;;;23.02;51.65;99471.13;2044835;28;19916;-58
2022/06/01 00:28:19;;;;;;;;;;;;;;;23.02;51.69;99463.72;2044118;28;20431;-57
2022/06/01 00:29:19;;;;;;;;;;;;;;;23.02;51.80;99458.22;2043513;28;19926;-58
2022/06/01 00:30:21;;;;;;;;;;;;;;;23.01;51.84;99467.53;2043302;28;20052;-58
2022/06/01 00:31:21;;;;;;;;;;;;;;;23.01;51.80;99470.28;2043674;28;19986;-57
2022/06/01 00:32:21;;;;;;;;;;;;;;;23.01;51.90;99464.78;2043146;28;20152;-58
2022/06/01 00:33:21;;;;;;;;;;;;;;;23.01;51.88;99466.69;2049262;28;20892;-57
2022/06/01 00:34:22;;;;;;;;;;;;;;;23.01;51.82;99458.44;2044813;28;20409;-58
2022/06/01 00:35:23;;;;;;;;;;;;;;;23.00;51.81;99460.31;2043905;28;19918;-58
2022/06/01 00:36:23;;;;;;;;;;;;;;;23.01;51.95;99463.94;2045321;28;19918;-57
2022/06/01 00:37:24;;;;;;;;;;;;;;;23.00;51.86;99463.06;2043411;28;20016;-58
2022/06/01 00:38:24;;;;;;;;;;;;;;;23.00;51.97;99457.56;2044595;28;19941;-57
2022/06/01 00:39:24;;;;;;;;;;;;;;;23.00;51.84;99457.56;2044030;28;20348;-57
2022/06/01 00:40:26;;;;;;;;;;;;;;;23.00;51.71;99463.06;2043434;28;19922;-58
2022/06/01 00:41:29;;;;;;;;;;;;;;;23.00;52.00;99465.81;2052360;28;19924;-57
2022/06/01 00:42:30;;;;;;;;;;;;;;;23.00;51.79;99457.56;2049856;28;19918;-58
2022/06/01 00:43:37;;;;;;;;;;;;;;;23.00;51.88;99468.56;2042782;28;19922;-57
2022/06/01 00:44:37;;;;;;;;;;;;;;;23.00;51.76;99468.56;2052798;28;20380;-58
2022/06/01 00:45:38;;;;;;;;;;;;;;;23.00;51.89;99468.56;2051483;28;19910;-59
2022/06/01 00:46:38;;;;;;;;;;;;;;;23.01;51.89;99467.53;2045625;28;19928;-57
2022/06/01 00:47:38;;;;;;;;;;;;;;;23.01;51.65;99469.44;2043055;28;20359;-57
2022/06/01 00:48:40;;;;;;;;;;;;;;;23.01;51.69;99470.28;2044183;28;19914;-58
2022/06/01 00:49:43;;;;;;;;;;;;;;;23.00;51.77;99468.56;2042657;28;19929;-57
2022/06/01 00:50:43;;;;;;;;;;;;;;;23.01;51.77;99462.03;2043062;28;20443;-57
2022/06/01 00:51:44;;;;;;;;;;;;;;;23.00;51.69;99467.69;2045198;28;19937;-57
2022/06/01 00:52:48;;;;;;;;;;;;;;;23.01;51.73;99464.78;2043199;28;20708;-57
2022/06/01 00:53:48;;;;;;;;;;;;;;;23.01;51.78;99466.69;2044374;28;19918;-57
2022/06/01 00:54:49;;;;;;;;;;;;;;;23.01;51.84;99459.28;2045105;28;19925;-58
2022/06/01 00:56:02;;;;;;;;;;;;;;;23.00;51.90;99463.06;2043414;28;19922;-57
2022/06/01 00:57:07;;;;;;;;;;;;;;;23.01;51.75;99461.19;2044426;28;19988;-58
2022/06/01 00:58:13;;;;;;;;;;;;;;;23.01;51.74;99458.44;2046164;28;19918;-57
2022/06/01 00:59:16;;;;;;;;;;;;;;;23.00;51.90;99460.31;2043410;28;19937;-58
2022/06/01 01:00:22;;;;;;;;;;;;;;;22.99;51.96;99461.38;2042311;28;19926;-58
2022/06/01 01:01:22;;;;;;;;;;;;;;;23.00;51.88;99465.81;2043751;28;20129;-58
2022/06/01 01:02:23;;;;;;;;;;;;;;;22.99;52.01;99461.38;2044667;28;19956;-58
2022/06/01 01:03:25;;;;;;;;;;;;;;;22.99;52.00;99457.78;2045861;28;20312;-57
2022/06/01 01:04:26;;;;;;;;;;;;;;;22.99;52.03;99452.28;2042986;28;20020;-57
2022/06/01 01:05:27;;;;;;;;;;;;;;;22.98;52.00;99451.44;2043665;28;19922;-58
2022/06/01 01:06:27;;;;;;;;;;;;;;;22.97;52.12;99455.16;2044866;28;20309;-58
2022/06/01 01:07:28;;;;;;;;;;;;;;;22.97;52.01;99446.91;2044184;28;19918;-57
2022/06/01 01:08:28;;;;;;;;;;;;;;;22.98;52.16;99447.81;2044609;28;20595;-58
2022/06/01 01:09:29;;;;;;;;;;;;;;;22.97;51.97;99446.91;2044084;28;19930;-57
2022/06/01 01:10:30;;;;;;;;;;;;;;;22.98;52.09;99445.06;2044920;28;19917;-58
2022/06/01 01:11:54;;;;;;;;;;;;;;;22.96;52.05;99444.38;2044871;28;19926;-58
2022/06/01 01:13:03;;;;;;;;;;;;;;;22.97;52.12;99446.06;2039192;28;20018;-58
2022/06/01 01:14:06;;;;;;;;;;;;;;;22.96;51.92;99445.22;2044503;28;19910;-57
2022/06/01 01:15:07;;;;;;;;;;;;;;;22.97;51.96;99440.56;2043623;28;19963;-57
2022/06/01 01:16:10;;;;;;;;;;;;;;;22.96;52.18;99434.25;2042916;28;19911;-57
2022/06/01 01:17:10;;;;;;;;;;;;;;;22.96;51.87;99434.25;2044872;28;19963;-59
2022/06/01 01:18:13;;;;;;;;;;;;;;;22.97;51.93;99435.94;2051158;28;20383;-58
2022/06/01 01:19:34;;;;;;;;;;;;;;;22.97;51.97;99430.44;2052290;28;20020;-57
2022/06/01 01:20:35;;;;;;;;;;;;;;;22.97;52.00;99438.69;2043695;28;19918;-58
2022/06/01 01:21:35;;;;;;;;;;;;;;;22.98;51.91;99436.81;2042135;28;19961;-57
2022/06/01 01:22:39;;;;;;;;;;;;;;;22.97;51.85;99438.69;2045024;28;20326;-57
2022/06/01 01:23:45;;;;;;;;;;;;;;;22.98;51.95;99440.44;2043926;28;19906;-57
2022/06/01 01:25:04;;;;;;;;;;;;;;;22.97;51.79;99446.91;2042641;28;20004;-57
2022/06/01 01:26:06;;;;;;;;;;;;;;;22.97;51.79;99444.16;2044071;28;20636;-57
2022/06/01 01:27:07;;;;;;;;;;;;;;;22.97;52.02;99441.44;2044991;28;19910;-58
2022/06/01 01:28:08;;;;;;;;;;;;;;;22.98;51.85;99442.31;2041412;28;19918;-57
2022/06/01 01:29:09;;;;;;;;;;;;;;;22.98;51.79;99443.19;2044396;28;20331;-57
2022/06/01 01:30:30;;;;;;;;;;;;;;;22.99;51.92;99446.78;2049284;28;19940;-58
2022/06/01 01:31:30;;;;;;;;;;;;;;;22.98;51.90;99447.81;2050276;28;19988;-58
2022/06/01 01:32:31;;;;;;;;;;;;;;;22.98;51.98;99448.69;2043446;28;20113;-57
2022/06/01 01:33:31;;;;;;;;;;;;;;;22.98;51.92;99451.44;2044359;28;20303;-57
2022/06/01 01:34:32;;;;;;;;;;;;;;;22.98;51.81;99445.06;2044584;28;19917;-57
2022/06/01 01:35:33;;;;;;;;;;;;;;;22.97;52.04;99441.44;2043717;28;19957;-58
2022/06/01 01:36:36;;;;;;;;;;;;;;;22.97;51.89;99446.91;2045568;28;20437;-57
2022/06/01 01:37:37;;;;;;;;;;;;;;;22.97;51.96;99435.94;2043792;28;19917;-58
2022/06/01 01:38:41;;;;;;;;;;;;;;;22.97;52.02;99435.09;2043304;28;19910;-58
2022/06/01 01:39:41;;;;;;;;;;;;;;;22.95;52.01;99432.50;2044613;28;20449;-57
2022/06/01 01:40:41;;;;;;;;;;;;;;;22.95;52.12;99438.00;2044187;28;19964;-57
2022/06/01 01:41:42;;;;;;;;;;;;;;;22.95;52.08;99427.00;2043127;28;20348;-58
2022/06/01 01:42:43;;;;;;;;;;;;;;;22.94;52.05;99430.81;2044738;28;20399;-58
2022/06/01 01:43:48;;;;;;;;;;;;;;;22.94;52.10;99425.31;2044992;28;19925;-57
2022/06/01 01:45:08;;;;;;;;;;;;;;;22.94;52.17;99425.31;2044946;28;19925;-58
2022/06/01 01:46:09;;;;;;;;;;;;;;;22.94;52.12;99419.81;2045040;28;19910;-57
2022/06/01 01:47:09;;;;;;;;;;;;;;;22.94;51.98;99417.06;2043837;28;20412;-57
2022/06/01 01:48:12;;;;;;;;;;;;;;;22.95;51.99;99420.66;2045142;28;20340;-58
2022/06/01 01:49:13;;;;;;;;;;;;;;;22.95;52.05;99416.03;2042040;28;19981;-58
2022/06/01 01:50:14;;;;;;;;;;;;;;;22.95;52.17;99420.66;2043248;28;20366;-59
2022/06/01 01:51:18;;;;;;;;;;;;;;;22.95;52.08;99416.03;2045394;28;20037;-57
2022/06/01 01:52:19;;;;;;;;;;;;;;;22.94;52.10;99417.06;2042836;28;20664;-58
2022/06/01 01:53:19;;;;;;;;;;;;;;;22.94;52.10;99416.22;2043794;28;19922;-57
2022/06/01 01:54:19;;;;;;;;;;;;;;;22.95;52.05;99415.19;2044688;28;20228;-57
2022/06/01 01:55:58;;;;;;;;;;;;;;;22.95;52.06;99416.03;2044176;28;19926;-58
2022/06/01 01:57:17;;;;;;;;;;;;;;;22.94;52.02;99408.84;2053046;28;20033;-60
2022/06/01 01:58:34;;;;;;;;;;;;;;;22.95;51.96;99410.53;2049969;28;19925;-57
2022/06/01 01:59:34;;;;;;;;;;;;;;;22.95;51.90;99410.53;2059786;28;19917;-57
2022/06/01 02:00:41;;;;;;;;;;;;;;;22.95;51.87;99413.28;2051131;28;19918;-57
2022/06/01 02:01:50;;;;;;;;;;;;;;;22.95;51.97;99416.03;2049816;28;20033;-57
2022/06/01 02:02:58;;;;;;;;;;;;;;;22.94;52.14;99408.84;2038169;28;19926;-59
2022/06/01 02:04:05;;;;;;;;;;;;;;;22.95;51.97;99410.53;2044852;28;20060;-57
2022/06/01 02:06:54;;;;;;;;;;;;;;;22.94;51.96;99402.50;2046640;28;19926;-57
2022/06/01 02:08:01;;;;;;;;;;;;;;;22.95;52.05;99404.19;2040962;28;19918;-58
2022/06/01 02:09:07;;;;;;;;;;;;;;;22.95;52.08;99410.53;2045992;28;20309;-58
2022/06/01 02:12:49;;;;;;;;;;;;;;;22.94;52.05;99408.84;2044532;28;20351;-57
2022/06/01 02:13:50;;;;;;;;;;;;;;;22.93;52.28;99404.41;2046478;28;19922;-57
2022/06/01 02:14:53;;;;;;;;;;;;;;;22.93;52.28;99398.91;2042354;28;19960;-57
2022/06/01 02:15:55;;;;;;;;;;;;;;;22.93;52.30;99393.41;2038946;28;19977;-58
2022/06/01 02:17:04;;;;;;;;;;;;;;;22.92;52.26;99402.66;2047322;28;20218;-58
2022/06/01 02:18:10;;;;;;;;;;;;;;;22.92;52.18;99388.94;2043156;28;19965;-59
2022/06/01 02:19:13;;;;;;;;;;;;;;;22.93;52.15;99392.53;2047157;28;19922;-58
2022/06/01 02:20:14;;;;;;;;;;;;;;;22.93;52.36;99395.28;2044472;28;20381;-58
2022/06/01 02:21:17;;;;;;;;;;;;;;;22.91;52.35;99392.75;2045803;28;20097;-58
2022/06/01 02:22:17;;;;;;;;;;;;;;;22.91;52.38;99390.00;2044581;28;19918;-57
2022/06/01 02:23:18;;;;;;;;;;;;;;;22.91;52.44;99398.22;2044732;28;20327;-58
2022/06/01 02:24:18;;;;;;;;;;;;;;;22.91;52.29;99387.25;2046023;28;19953;-57
2022/06/01 02:25:19;;;;;;;;;;;;;;;22.91;52.31;99398.22;2044428;28;19918;-58
2022/06/01 02:26:19;;;;;;;;;;;;;;;22.91;52.22;99398.22;2046490;28;19925;-57
2022/06/01 02:27:20;;;;;;;;;;;;;;;22.92;52.13;99394.44;2044752;28;19929;-58
2022/06/01 02:28:20;;;;;;;;;;;;;;;22.92;52.31;99393.59;2040667;28;19961;-58
2022/06/01 02:29:32;;;;;;;;;;;;;;;22.92;52.12;99397.19;2046055;28;19965;-57
2022/06/01 02:30:36;;;;;;;;;;;;;;;22.92;52.02;99397.19;2044715;28;19924;-58
2022/06/01 02:31:37;;;;;;;;;;;;;;;22.92;52.19;99391.69;2045209;28;19922;-57
2022/06/01 02:32:39;;;;;;;;;;;;;;;22.92;52.22;99394.44;2044960;28;19910;-58
2022/06/01 02:33:40;;;;;;;;;;;;;;;22.93;52.25;99389.78;2041401;28;19965;-58
2022/06/01 02:34:43;;;;;;;;;;;;;;;22.92;52.29;99391.69;2044178;28;19918;-58
2022/06/01 02:35:44;;;;;;;;;;;;;;;22.93;52.07;99389.78;2045919;28;19917;-58
2022/06/01 02:36:45;;;;;;;;;;;;;;;22.93;52.27;99390.66;2043424;28;20150;-57
2022/06/01 02:37:48;;;;;;;;;;;;;;;22.92;52.15;99388.94;2044293;28;19957;-58
2022/06/01 02:38:51;;;;;;;;;;;;;;;22.92;52.15;99383.44;2045982;28;20017;-58
2022/06/01 02:39:54;;;;;;;;;;;;;;;22.92;52.15;99386.19;2043791;28;20012;-58
2022/06/01 02:40:54;;;;;;;;;;;;;;;22.92;52.10;99386.19;2044295;28;20405;-58
2022/06/01 02:42:26;;;;;;;;;;;;;;;22.93;52.15;99381.53;2045951;28;19957;-57
2022/06/01 02:43:27;;;;;;;;;;;;;;;22.92;52.08;99374.34;2045049;28;20056;-58
2022/06/01 02:44:27;;;;;;;;;;;;;;;22.92;52.20;99375.19;2044084;28;20245;-58
2022/06/01 02:45:28;;;;;;;;;;;;;;;22.93;52.16;99376.03;2047158;28;20075;-57
2022/06/01 02:46:28;;;;;;;;;;;;;;;22.91;52.08;99376.25;2045618;28;19928;-58
2022/06/01 02:47:33;;;;;;;;;;;;;;;22.91;52.24;99370.75;2043384;28;20351;-57
2022/06/01 02:48:33;;;;;;;;;;;;;;;22.90;52.17;99364.38;2053828;28;19918;-57
2022/06/01 02:49:33;;;;;;;;;;;;;;;22.89;52.17;99367.34;2051709;28;20202;-57
2022/06/01 02:50:35;;;;;;;;;;;;;;;22.90;52.23;99364.38;2046010;28;19918;-58
2022/06/01 02:51:36;;;;;;;;;;;;;;;22.90;52.24;99366.28;2044016;28;19922;-57
2022/06/01 02:52:36;;;;;;;;;;;;;;;22.91;52.16;99365.25;2044134;28;19917;-59
2022/06/01 02:53:37;;;;;;;;;;;;;;;22.89;52.39;99359.09;2044955;28;20210;-57
2022/06/01 02:54:38;;;;;;;;;;;;;;;22.89;52.19;99359.09;2044372;28;19914;-58
2022/06/01 02:55:38;;;;;;;;;;;;;;;22.88;52.21;99354.63;2045131;28;19918;-57
2022/06/01 02:56:39;;;;;;;;;;;;;;;22.88;52.43;99360.13;2043938;28;19910;-58
2022/06/01 02:57:43;;;;;;;;;;;;;;;22.88;52.41;99357.38;2044551;28;19922;-57
2022/06/01 02:58:43;;;;;;;;;;;;;;;22.88;52.35;99354.63;2046116;28;19918;-57
2022/06/01 02:59:44;;;;;;;;;;;;;;;22.88;52.29;99361.00;2039342;28;19929;-58
2022/06/01 03:00:44;;;;;;;;;;;;;;;22.89;52.31;99361.84;2045501;28;19918;-58
2022/06/01 03:01:45;;;;;;;;;;;;;;;22.88;52.23;99360.13;2045452;28;19990;-58
2022/06/01 03:02:51;;;;;;;;;;;;;;;22.88;52.25;99360.13;2045902;28;20136;-57
2022/06/01 03:03:53;;;;;;;;;;;;;;;22.89;52.19;99356.34;2044794;28;19922;-57
2022/06/01 03:04:53;;;;;;;;;;;;;;;22.90;52.10;99358.03;2044843;28;19922;-57
2022/06/01 03:05:53;;;;;;;;;;;;;;;22.88;52.18;99355.50;2045390;28;20347;-58
2022/06/01 03:06:54;;;;;;;;;;;;;;;22.90;52.24;99358.03;2044488;28;19918;-57
2022/06/01 03:07:54;;;;;;;;;;;;;;;22.89;52.19;99356.34;2045087;28;19918;-59
2022/06/01 03:08:55;;;;;;;;;;;;;;;22.90;52.13;99358.03;2045589;28;20602;-57
2022/06/01 03:09:55;;;;;;;;;;;;;;;22.90;52.12;99363.53;2045511;28;20009;-58
2022/06/01 03:10:55;;;;;;;;;;;;;;;22.91;52.15;99362.50;2046469;28;19924;-58
2022/06/01 03:11:56;;;;;;;;;;;;;;;22.89;52.09;99359.09;2043187;28;19925;-58
2022/06/01 03:12:56;;;;;;;;;;;;;;;22.90;52.21;99367.13;2045164;28;19933;-58
2022/06/01 03:13:57;;;;;;;;;;;;;;;22.89;52.16;99356.34;2045408;28;19985;-58
2022/06/01 03:14:57;;;;;;;;;;;;;;;22.89;52.21;99350.84;2051340;28;19977;-57
2022/06/01 03:15:58;;;;;;;;;;;;;;;22.89;52.18;99356.34;2047043;28;21005;-57
2022/06/01 03:16:58;;;;;;;;;;;;;;;22.90;52.16;99363.53;2042464;28;19918;-57
2022/06/01 03:17:58;;;;;;;;;;;;;;;22.89;52.17;99359.09;2045706;28;20145;-57
2022/06/01 03:18:59;;;;;;;;;;;;;;;22.90;52.26;99360.78;2044878;28;20372;-58
2022/06/01 03:20:00;;;;;;;;;;;;;;;22.89;52.11;99361.84;2044043;28;20222;-58
2022/06/01 03:21:00;;;;;;;;;;;;;;;22.89;52.01;99361.84;2046295;28;19973;-57
2022/06/01 03:22:01;;;;;;;;;;;;;;;22.89;52.30;99361.84;2043321;28;20202;-57
2022/06/01 03:23:02;;;;;;;;;;;;;;;22.88;52.23;99358.25;2045465;28;19918;-57
2022/06/01 03:24:02;;;;;;;;;;;;;;;22.87;52.16;99358.44;2044624;28;20001;-58
2022/06/01 03:25:08;;;;;;;;;;;;;;;22.88;52.23;99354.63;2044445;28;20993;-58
2022/06/01 03:26:08;;;;;;;;;;;;;;;22.87;52.25;99352.94;2045578;28;20234;-58
2022/06/01 03:27:09;;;;;;;;;;;;;;;22.88;52.15;99354.63;2051370;28;19929;-57
2022/06/01 03:28:09;;;;;;;;;;;;;;;22.87;52.17;99353.78;2050998;28;19921;-57
2022/06/01 03:29:10;;;;;;;;;;;;;;;22.86;52.23;99351.25;2042467;28;20509;-58
2022/06/01 03:30:11;;;;;;;;;;;;;;;22.87;52.22;99355.69;2043145;28;19918;-58
2022/06/01 03:31:12;;;;;;;;;;;;;;;22.86;52.28;99351.25;2044236;28;19922;-58
2022/06/01 03:32:12;;;;;;;;;;;;;;;22.86;52.34;99354.00;2045585;28;19925;-58
2022/06/01 03:33:13;;;;;;;;;;;;;;;22.86;52.51;99348.50;2045510;28;20325;-58
2022/06/01 03:34:13;;;;;;;;;;;;;;;22.86;52.42;99349.34;2044766;28;19918;-57
2022/06/01 03:35:15;;;;;;;;;;;;;;;22.86;52.36;99346.59;2046248;28;20376;-58
2022/06/01 03:36:16;;;;;;;;;;;;;;;22.85;52.46;99342.13;2042796;28;20206;-58
2022/06/01 03:37:16;;;;;;;;;;;;;;;22.86;52.47;99345.75;2044704;28;19918;-58
2022/06/01 03:38:16;;;;;;;;;;;;;;;22.85;52.39;99344.88;2045785;28;19918;-58
2022/06/01 03:39:17;;;;;;;;;;;;;;;22.86;52.46;99345.75;2043710;28;19975;-57
2022/06/01 03:40:18;;;;;;;;;;;;;;;22.87;52.40;99347.44;2045176;28;19918;-57
2022/06/01 03:41:19;;;;;;;;;;;;;;;22.87;52.49;99347.44;2045302;28;19918;-58
2022/06/01 03:42:19;;;;;;;;;;;;;;;22.86;52.44;99343.00;2043955;28;20139;-57
2022/06/01 03:43:20;;;;;;;;;;;;;;;22.87;52.27;99330.94;2045903;28;20389;-58
2022/06/01 03:46:02;;;;;;;;;;;;;;;22.86;52.31;99330.09;2043225;28;19914;-58
2022/06/01 03:47:09;;;;;;;;;;;;;;;22.86;52.43;99335.59;2046298;28;19918;-58
2022/06/01 03:48:09;;;;;;;;;;;;;;;22.87;52.30;99331.78;2045249;28;20245;-57
2022/06/01 03:49:09;;;;;;;;;;;;;;;22.87;52.34;99325.47;2044168;28;19965;-58
2022/06/01 03:50:10;;;;;;;;;;;;;;;22.86;52.23;99324.63;2044866;28;19921;-57
2022/06/01 03:51:10;;;;;;;;;;;;;;;22.87;52.36;99322.72;2044684;28;19925;-57
2022/06/01 03:52:11;;;;;;;;;;;;;;;22.87;52.34;99325.47;2044184;28;19991;-58
2022/06/01 03:53:11;;;;;;;;;;;;;;;22.86;52.26;99321.03;2044758;28;19918;-58
2022/06/01 03:54:11;;;;;;;;;;;;;;;22.87;52.31;99325.47;2044615;28;19951;-57
2022/06/01 03:55:14;;;;;;;;;;;;;;;22.86;52.34;99327.34;2044018;28;19968;-58
2022/06/01 03:56:14;;;;;;;;;;;;;;;22.86;52.25;99329.25;2045352;28;19930;-57
2022/06/01 03:57:15;;;;;;;;;;;;;;;22.87;52.22;99330.94;2043631;28;19922;-57
2022/06/01 03:58:17;;;;;;;;;;;;;;;22.85;52.36;99322.88;2045870;28;19925;-57
2022/06/01 03:59:17;;;;;;;;;;;;;;;22.85;52.39;99327.53;2046037;28;20415;-57
2022/06/01 04:00:21;;;;;;;;;;;;;;;22.86;52.42;99326.50;2044855;28;19954;-58
2022/06/01 04:01:21;;;;;;;;;;;;;;;22.85;52.36;99327.53;2045095;28;20183;-57
2022/06/01 04:02:21;;;;;;;;;;;;;;;22.85;52.39;99322.88;2044278;28;19914;-57
2022/06/01 04:03:21;;;;;;;;;;;;;;;22.84;52.30;99332.19;2044959;28;20361;-59
2022/06/01 04:04:22;;;;;;;;;;;;;;;22.85;52.29;99335.78;2044687;28;20154;-58
2022/06/01 04:05:23;;;;;;;;;;;;;;;22.85;52.43;99335.78;2043947;28;19953;-57
2022/06/01 04:06:23;;;;;;;;;;;;;;;22.85;52.44;99335.78;2044595;28;20351;-57
2022/06/01 04:07:23;;;;;;;;;;;;;;;22.84;52.37;99336.84;2044712;28;19929;-57
2022/06/01 04:08:23;;;;;;;;;;;;;;;22.85;52.49;99338.53;2044533;28;19914;-58
2022/06/01 04:09:24;;;;;;;;;;;;;;;22.85;52.41;99344.03;2043826;28;20467;-57
2022/06/01 04:10:24;;;;;;;;;;;;;;;22.85;52.53;99341.28;2044543;28;19957;-58
2022/06/01 04:11:25;;;;;;;;;;;;;;;22.85;52.42;99344.03;2044152;28;19926;-58
2022/06/01 04:12:26;;;;;;;;;;;;;;;22.84;52.60;99342.34;2045791;28;20206;-60
2022/06/01 04:13:27;;;;;;;;;;;;;;;22.84;52.42;99342.34;2044110;28;19914;-57
2022/06/01 04:14:27;;;;;;;;;;;;;;;22.85;52.47;99344.03;2043410;28;20264;-58
2022/06/01 04:15:28;;;;;;;;;;;;;;;22.84;52.48;99353.31;2045373;28;19918;-58
2022/06/01 04:16:28;;;;;;;;;;;;;;;22.84;52.54;99347.84;2042338;28;19922;-58
2022/06/01 04:17:28;;;;;;;;;;;;;;;22.84;52.51;99348.69;2043512;28;19918;-58
2022/06/01 04:18:28;;;;;;;;;;;;;;;22.85;52.40;99349.53;2042833;28;19916;-57
2022/06/01 04:19:29;;;;;;;;;;;;;;;22.85;52.39;99355.03;2044444;28;19917;-57
2022/06/01 04:20:29;;;;;;;;;;;;;;;22.85;52.53;99352.28;2045445;28;20344;-58
2022/06/01 04:21:33;;;;;;;;;;;;;;;22.85;52.40;99355.03;2043477;28;20566;-58
2022/06/01 04:22:34;;;;;;;;;;;;;;;22.85;52.33;99363.25;2040323;28;20403;-57
2022/06/01 04:23:34;;;;;;;;;;;;;;;22.84;52.50;99356.06;2044153;28;20304;-59
2022/06/01 04:24:35;;;;;;;;;;;;;;;22.84;52.49;99358.81;2043846;28;20335;-58
2022/06/01 04:25:35;;;;;;;;;;;;;;;22.83;52.49;99360.72;2045776;28;19918;-57
2022/06/01 04:26:35;;;;;;;;;;;;;;;22.83;52.49;99368.97;2043748;28;19946;-57
2022/06/01 04:27:38;;;;;;;;;;;;;;;22.84;52.51;99367.06;2045287;28;19968;-58
2022/06/01 04:28:38;;;;;;;;;;;;;;;22.84;52.56;99378.91;2044774;28;20070;-58
2022/06/01 04:29:39;;;;;;;;;;;;;;;22.83;52.73;99374.47;2042399;28;19922;-58
2022/06/01 04:30:40;;;;;;;;;;;;;;;22.84;52.48;99375.31;2044686;28;19918;-57
2022/06/01 04:31:40;;;;;;;;;;;;;;;22.83;52.46;99377.22;2043963;28;19922;-57
2022/06/01 04:32:41;;;;;;;;;;;;;;;22.83;52.50;99385.47;2044425;28;19922;-58
2022/06/01 04:33:43;;;;;;;;;;;;;;;22.83;52.66;99379.97;2041391;28;20285;-57
2022/06/01 04:34:43;;;;;;;;;;;;;;;22.83;52.51;99387.31;2045034;28;19925;-58
2022/06/01 04:35:43;;;;;;;;;;;;;;;22.82;52.73;99380.13;2048823;28;19922;-58
2022/06/01 04:36:44;;;;;;;;;;;;;;;22.81;52.75;99387.53;2051154;28;20391;-58
2022/06/01 04:37:44;;;;;;;;;;;;;;;22.81;52.91;99386.69;2040666;28;19954;-58
2022/06/01 04:38:44;;;;;;;;;;;;;;;22.81;52.97;99386.69;2044716;28;19918;-57
2022/06/01 04:39:45;;;;;;;;;;;;;;;22.80;53.07;99384.97;2042725;28;19929;-58
2022/06/01 04:40:47;;;;;;;;;;;;;;;22.80;52.99;99387.72;2043455;28;19964;-58
2022/06/01 04:41:48;;;;;;;;;;;;;;;22.79;53.00;99388.78;2044383;28;19914;-57
2022/06/01 04:42:48;;;;;;;;;;;;;;;22.79;53.03;99392.38;2043355;28;20313;-57
2022/06/01 04:43:49;;;;;;;;;;;;;;;22.79;53.09;99388.78;2045807;28;19910;-58
2022/06/01 04:44:49;;;;;;;;;;;;;;;22.79;52.97;99392.38;2044781;28;20013;-58
2022/06/01 04:45:50;;;;;;;;;;;;;;;22.78;53.00;99381.56;2044467;28;19922;-58
2022/06/01 04:46:51;;;;;;;;;;;;;;;22.78;52.92;99387.06;2044868;28;19973;-58
2022/06/01 04:47:51;;;;;;;;;;;;;;;22.78;53.01;99393.38;2043376;28;20369;-58
2022/06/01 04:48:51;;;;;;;;;;;;;;;22.78;53.24;99392.53;2041460;28;19911;-57
2022/06/01 04:49:51;;;;;;;;;;;;;;;22.79;52.99;99394.28;2042415;28;19925;-58
2022/06/01 04:50:53;;;;;;;;;;;;;;;22.78;53.02;99393.38;2042506;28;21638;-57
2022/06/01 04:51:53;;;;;;;;;;;;;;;22.78;53.13;99398.03;2038236;28;19923;-58
2022/06/01 04:52:54;;;;;;;;;;;;;;;22.78;52.98;99398.03;2040146;28;19928;-57
2022/06/01 04:53:54;;;;;;;;;;;;;;;22.77;52.94;99391.69;2043535;28;20190;-58
2022/06/01 04:54:54;;;;;;;;;;;;;;;22.79;53.05;99405.25;2043841;28;19973;-58
2022/06/01 04:55:55;;;;;;;;;;;;;;;22.79;52.89;99397.03;2043293;28;19978;-58
2022/06/01 04:56:55;;;;;;;;;;;;;;;22.78;53.08;99398.88;2044969;28;19918;-57
2022/06/01 04:57:55;;;;;;;;;;;;;;;22.79;53.01;99399.75;2043002;28;20029;-58
2022/06/01 04:58:56;;;;;;;;;;;;;;;22.79;53.05;99399.75;2042660;28;20003;-57
2022/06/01 04:59:56;;;;;;;;;;;;;;;22.78;52.94;99398.03;2044134;28;20024;-58
2022/06/01 05:00:56;;;;;;;;;;;;;;;22.79;52.97;99389.63;2042893;28;19919;-57
2022/06/01 05:01:56;;;;;;;;;;;;;;;22.79;52.96;99391.53;2045364;28;20226;-58
2022/06/01 05:02:57;;;;;;;;;;;;;;;22.79;53.00;99394.28;2042847;28;20522;-58
2022/06/01 05:03:57;;;;;;;;;;;;;;;22.78;53.05;99398.03;2044162;28;19918;-58
2022/06/01 05:04:57;;;;;;;;;;;;;;;22.78;52.89;99389.78;2042454;28;19973;-58
2022/06/01 05:05:58;;;;;;;;;;;;;;;22.78;52.97;99392.53;2044288;28;20131;-57
2022/06/01 05:06:58;;;;;;;;;;;;;;;22.78;52.93;99387.06;2042714;28;20769;-62
2022/06/01 05:07:59;;;;;;;;;;;;;;;22.78;53.19;99387.91;2040499;28;20049;-49
2022/06/01 05:08:59;;;;;;;;;;;;;;;22.79;53.19;99384.13;2039919;28;19918;-52
2022/06/01 05:09:59;;;;;;;;;;;;;;;22.80;53.17;99388.56;2038374;28;20374;-50
2022/06/01 05:11:00;;;;;;;;;;;;;;;22.81;53.23;99392.19;2041029;28;19922;-50
2022/06/01 05:12:00;;;;;;;;;;;;;;;22.81;53.00;99389.44;2043525;28;19924;-54
2022/06/01 05:13:00;;;;;;;;;;;;;;;22.81;53.12;99384.78;2041260;28;19926;-53
2022/06/01 05:14:01;;;;;;;;;;;;;;;22.81;53.04;99384.78;2042261;28;19922;-53
2022/06/01 05:15:01;;;;;;;;;;;;;;;22.81;53.07;99383.94;2042068;28;19918;-54
2022/06/01 05:16:02;;;;;;;;;;;;;;;22.82;52.98;99377.41;2042576;28;19929;-53
2022/06/01 05:17:02;;;;;;;;;;;;;;;22.82;53.09;99385.63;2042738;28;19922;-53
2022/06/01 05:18:03;;;;;;;;;;;;;;;22.81;53.16;99376.53;2041793;28;20012;-53
2022/06/01 05:19:03;;;;;;;;;;;;;;;22.82;52.98;99378.25;2043446;28;19918;-52
2022/06/01 05:20:04;;;;;;;;;;;;;;;22.83;53.08;99381.84;2044109;28;19925;-53
2022/06/01 05:21:04;;;;;;;;;;;;;;;22.83;53.16;99379.09;2041970;28;20337;-53
2022/06/01 05:22:05;;;;;;;;;;;;;;;22.83;53.22;99379.09;2045450;28;19922;-53
2022/06/01 05:23:05;;;;;;;;;;;;;;;22.83;53.21;99376.34;2043478;28;19941;-53
2022/06/01 05:24:06;;;;;;;;;;;;;;;22.83;53.32;99384.56;2041817;28;20855;-53
2022/06/01 05:25:07;;;;;;;;;;;;;;;22.83;53.27;99382.72;2043193;28;19914;-55
2022/06/01 05:26:07;;;;;;;;;;;;;;;22.84;53.14;99378.06;2043129;28;19917;-54
2022/06/01 05:27:08;;;;;;;;;;;;;;;22.84;53.39;99380.81;2042609;28;19910;-54
2022/06/01 05:28:08;;;;;;;;;;;;;;;22.83;53.38;99379.09;2043781;28;19949;-54
2022/06/01 05:29:08;;;;;;;;;;;;;;;22.85;53.26;99377.00;2042055;28;19911;-54